sensor_id;sensor_type;location;lat;lon;timestamp;pressure;altitude;pressure_sealevel;temperature;humidity
70544;BME280;58097;48.364;-1.224;2023-12-20T00:00:35;100635.31;;;7.63;100.00
70544;BME280;58097;48.364;-1.224;2023-12-20T00:03:00;100640.06;;;7.61;100.00
70544;BME280;58097;48.364;-1.224;2023-12-20T00:05:25;100646.81;;;7.57;100.00
70544;BME280;58097;48.364;-1.224;2023-12-20T00:07:51;100644.06;;;7.57;100.00
70544;BME280;58097;48.364;-1.224;2023-12-20T00:10:16;100645.56;;;7.61;100.00
70544;BME280;58097;48.364;-1.224;2023-12-20T00:12:41;100649.31;;;7.60;100.00
70544;BME280;58097;48.364;-1.224;2023-12-20T00:15:07;100643.56;;;7.63;100.00
70544;BME280;58097;48.364;-1.224;2023-12-20T00:17:32;100642.44;;;7.66;100.00
70544;BME280;58097;48.364;-1.224;2023-12-20T00:19:57;100650.06;;;7.62;100.00
70544;BME280;58097;48.364;-1.224;2023-12-20T00:22:23;100650.94;;;7.63;100.00
70544;BME280;58097;48.364;-1.224;2023-12-20T00:24:48;100650.31;;;7.59;100.00
70544;BME280;58097;48.364;-1.224;2023-12-20T00:27:13;100655.94;;;7.58;100.00
70544;BME280;58097;48.364;-1.224;2023-12-20T00:29:39;100660.81;;;7.54;100.00
70544;BME280;58097;48.364;-1.224;2023-12-20T00:32:04;100660.81;;;7.54;100.00
70544;BME280;58097;48.364;-1.224;2023-12-20T00:34:30;100671.06;;;7.52;100.00
70544;BME280;58097;48.364;-1.224;2023-12-20T00:36:55;100666.66;;;7.50;100.00
70544;BME280;58097;48.364;-1.224;2023-12-20T00:39:20;100663.16;;;7.47;100.00
70544;BME280;58097;48.364;-1.224;2023-12-20T00:41:46;100669.91;;;7.43;100.00
70544;BME280;58097;48.364;-1.224;2023-12-20T00:44:11;100672.03;;;7.40;100.00
70544;BME280;58097;48.364;-1.224;2023-12-20T00:46:36;100669.41;;;7.38;100.00
70544;BME280;58097;48.364;-1.224;2023-12-20T00:49:01;100674.16;;;7.36;100.00
70544;BME280;58097;48.364;-1.224;2023-12-20T00:51:27;100676.03;;;7.36;100.00
70544;BME280;58097;48.364;-1.224;2023-12-20T00:53:52;100683.28;;;7.37;100.00
70544;BME280;58097;48.364;-1.224;2023-12-20T00:56:20;100674.16;;;7.36;100.00
70544;BME280;58097;48.364;-1.224;2023-12-20T00:58:45;100669.53;;;7.37;100.00
70544;BME280;58097;48.364;-1.224;2023-12-20T01:01:11;100672.28;;;7.37;100.00
70544;BME280;58097;48.364;-1.224;2023-12-20T01:03:36;100673.28;;;7.36;100.00
70544;BME280;58097;48.364;-1.224;2023-12-20T01:06:01;100666.03;;;7.35;100.00
70544;BME280;58097;48.364;-1.224;2023-12-20T01:08:27;100670.78;;;7.33;100.00
70544;BME280;58097;48.364;-1.224;2023-12-20T01:10:52;100669.16;;;7.30;100.00
70544;BME280;58097;48.364;-1.224;2023-12-20T01:13:17;100675.78;;;7.28;100.00
70544;BME280;58097;48.364;-1.224;2023-12-20T01:15:43;100662.28;;;7.25;100.00
70544;BME280;58097;48.364;-1.224;2023-12-20T01:18:08;100670.72;;;7.22;100.00
70544;BME280;58097;48.364;-1.224;2023-12-20T01:20:33;100674.47;;;7.21;100.00
70544;BME280;58097;48.364;-1.224;2023-12-20T01:22:59;100675.47;;;7.20;100.00
70544;BME280;58097;48.364;-1.224;2023-12-20T01:25:24;100671.09;;;7.17;100.00
70544;BME280;58097;48.364;-1.224;2023-12-20T01:27:50;100675.97;;;7.13;100.00
70544;BME280;58097;48.364;-1.224;2023-12-20T01:30:15;100682.47;;;7.12;100.00
70544;BME280;58097;48.364;-1.224;2023-12-20T01:32:40;100683.59;;;7.10;100.00
70544;BME280;58097;48.364;-1.224;2023-12-20T01:35:06;100671.84;;;7.08;100.00
70544;BME280;58097;48.364;-1.224;2023-12-20T01:37:31;100676.56;;;7.06;100.00
70544;BME280;58097;48.364;-1.224;2023-12-20T01:39:57;100676.56;;;7.06;100.00
70544;BME280;58097;48.364;-1.224;2023-12-20T01:42:22;100679.44;;;7.04;100.00
70544;BME280;58097;48.364;-1.224;2023-12-20T01:44:48;100678.56;;;7.04;100.00
70544;BME280;58097;48.364;-1.224;2023-12-20T01:47:14;100682.31;;;7.03;100.00
70544;BME280;58097;48.364;-1.224;2023-12-20T01:49:39;100675.06;;;7.02;100.00
70544;BME280;58097;48.364;-1.224;2023-12-20T01:52:06;100677.81;;;7.02;100.00
70544;BME280;58097;48.364;-1.224;2023-12-20T01:54:32;100681.44;;;7.02;100.00
70544;BME280;58097;48.364;-1.224;2023-12-20T01:56:57;100681.44;;;7.02;100.00
70544;BME280;58097;48.364;-1.224;2023-12-20T01:59:23;100671.19;;;7.04;100.00
70544;BME280;58097;48.364;-1.224;2023-12-20T02:01:48;100671.31;;;7.03;100.00
70544;BME280;58097;48.364;-1.224;2023-12-20T02:04:14;100674.69;;;7.06;100.00
70544;BME280;58097;48.364;-1.224;2023-12-20T02:06:40;100682.72;;;7.09;100.00
70544;BME280;58097;48.364;-1.224;2023-12-20T02:09:05;100702.59;;;7.13;100.00
70544;BME280;58097;48.364;-1.224;2023-12-20T02:11:30;100706.97;;;7.15;100.00
70544;BME280;58097;48.364;-1.224;2023-12-20T02:13:56;100710.34;;;7.19;100.00
70544;BME280;58097;48.364;-1.224;2023-12-20T02:16:22;100704.84;;;7.19;100.00
70544;BME280;58097;48.364;-1.224;2023-12-20T02:18:47;100705.72;;;7.20;100.00
70544;BME280;58097;48.364;-1.224;2023-12-20T02:21:12;100707.47;;;7.21;100.00
70544;BME280;58097;48.364;-1.224;2023-12-20T02:23:38;100709.88;;;7.25;100.00
70544;BME280;58097;48.364;-1.224;2023-12-20T02:26:04;100703.50;;;7.25;100.00
70544;BME280;58097;48.364;-1.224;2023-12-20T02:28:30;100708.00;;;7.26;100.00
70544;BME280;58097;48.364;-1.224;2023-12-20T02:30:55;100701.50;;;7.27;100.00
70544;BME280;58097;48.364;-1.224;2023-12-20T02:33:21;100695.78;;;7.30;100.00
70544;BME280;58097;48.364;-1.224;2023-12-20T02:35:46;100696.41;;;7.33;100.00
70544;BME280;58097;48.364;-1.224;2023-12-20T02:38:12;100698.16;;;7.34;100.00
70544;BME280;58097;48.364;-1.224;2023-12-20T02:40:38;100691.66;;;7.35;100.00
70544;BME280;58097;48.364;-1.224;2023-12-20T02:43:03;100704.28;;;7.38;100.00
70544;BME280;58097;48.364;-1.224;2023-12-20T02:45:28;100696.66;;;7.41;100.00
70544;BME280;58097;48.364;-1.224;2023-12-20T02:47:54;100690.28;;;7.41;100.00
70544;BME280;58097;48.364;-1.224;2023-12-20T02:50:19;100681.03;;;7.42;100.00
70544;BME280;58097;48.364;-1.224;2023-12-20T02:52:45;100690.16;;;7.42;100.00
70544;BME280;58097;48.364;-1.224;2023-12-20T02:55:11;100690.03;;;7.44;100.00
70544;BME280;58097;48.364;-1.224;2023-12-20T02:57:36;100675.41;;;7.43;100.00
70544;BME280;58097;48.364;-1.224;2023-12-20T03:00:09;100675.66;;;7.40;100.00
70544;BME280;58097;48.364;-1.224;2023-12-20T03:02:35;100688.53;;;7.40;100.00
70544;BME280;58097;48.364;-1.224;2023-12-20T03:05:01;100686.03;;;7.37;100.00
70544;BME280;58097;48.364;-1.224;2023-12-20T03:07:27;100700.03;;;7.34;100.00
70544;BME280;58097;48.364;-1.224;2023-12-20T03:09:52;100703.03;;;7.31;100.00
70544;BME280;58097;48.364;-1.224;2023-12-20T03:12:17;100702.91;;;7.32;100.00
70544;BME280;58097;48.364;-1.224;2023-12-20T03:14:43;100700.38;;;7.29;100.00
70544;BME280;58097;48.364;-1.224;2023-12-20T03:17:09;100690.50;;;7.27;100.00
70544;BME280;58097;48.364;-1.224;2023-12-20T03:19:34;100697.00;;;7.26;100.00
70544;BME280;58097;48.364;-1.224;2023-12-20T03:22:00;100688.00;;;7.24;100.00
70544;BME280;58097;48.364;-1.224;2023-12-20T03:24:26;100690.97;;;7.21;100.00
70544;BME280;58097;48.364;-1.224;2023-12-20T03:26:51;100700.09;;;7.21;100.00
70544;BME280;58097;48.364;-1.224;2023-12-20T03:29:16;100699.09;;;7.22;100.00
70544;BME280;58097;48.364;-1.224;2023-12-20T03:31:42;100692.84;;;7.20;100.00
70544;BME280;58097;48.364;-1.224;2023-12-20T03:34:07;100691.97;;;7.20;100.00
70544;BME280;58097;48.364;-1.224;2023-12-20T03:36:32;100689.59;;;7.15;100.00
70544;BME280;58097;48.364;-1.224;2023-12-20T03:38:58;100692.47;;;7.13;100.00
70544;BME280;58097;48.364;-1.224;2023-12-20T03:41:23;100695.44;;;7.10;100.00
70544;BME280;58097;48.364;-1.224;2023-12-20T03:43:49;100697.44;;;7.08;100.00
70544;BME280;58097;48.364;-1.224;2023-12-20T03:46:14;100703.94;;;7.07;100.00
70544;BME280;58097;48.364;-1.224;2023-12-20T03:48:39;100694.06;;;7.05;100.00
70544;BME280;58097;48.364;-1.224;2023-12-20T03:51:04;100684.31;;;7.01;100.00
70544;BME280;58097;48.364;-1.224;2023-12-20T03:53:30;100686.31;;;6.99;100.00
70544;BME280;58097;48.364;-1.224;2023-12-20T03:55:55;100680.81;;;6.99;100.00
70544;BME280;58097;48.364;-1.224;2023-12-20T03:58:20;100679.94;;;6.98;100.00
70544;BME280;58097;48.364;-1.224;2023-12-20T04:00:46;100682.69;;;6.98;100.00
70544;BME280;58097;48.364;-1.224;2023-12-20T04:03:11;100674.44;;;6.98;100.00
70544;BME280;58097;48.364;-1.224;2023-12-20T04:05:40;100684.31;;;7.01;100.00
70544;BME280;58097;48.364;-1.224;2023-12-20T04:08:05;100685.06;;;7.03;100.00
70544;BME280;58097;48.364;-1.224;2023-12-20T04:10:31;100681.19;;;7.05;100.00
70544;BME280;58097;48.364;-1.224;2023-12-20T04:12:56;100688.56;;;7.05;100.00
70544;BME280;58097;48.364;-1.224;2023-12-20T04:15:21;100692.94;;;7.07;100.00
70544;BME280;58097;48.364;-1.224;2023-12-20T04:17:46;100692.94;;;7.07;100.00
70544;BME280;58097;48.364;-1.224;2023-12-20T04:20:12;100686.44;;;7.08;100.00
70544;BME280;58097;48.364;-1.224;2023-12-20T04:22:37;100683.72;;;7.08;100.00
70544;BME280;58097;48.364;-1.224;2023-12-20T04:25:03;100674.69;;;7.06;100.00
70544;BME280;58097;48.364;-1.224;2023-12-20T04:27:28;100683.19;;;7.03;100.00
70544;BME280;58097;48.364;-1.224;2023-12-20T04:29:54;100683.19;;;7.03;100.00
70544;BME280;58097;48.364;-1.224;2023-12-20T04:32:19;100683.31;;;7.02;100.00
70544;BME280;58097;48.364;-1.224;2023-12-20T04:34:44;100686.94;;;7.02;100.00
70544;BME280;58097;48.364;-1.224;2023-12-20T04:37:10;100679.06;;;6.98;100.00
70544;BME280;58097;48.364;-1.224;2023-12-20T04:39:35;100678.31;;;6.96;100.00
70544;BME280;58097;48.364;-1.224;2023-12-20T04:42:01;100686.53;;;6.96;100.00
70544;BME280;58097;48.364;-1.224;2023-12-20T04:44:26;100689.28;;;6.96;100.00
70544;BME280;58097;48.364;-1.224;2023-12-20T04:46:51;100689.19;;;6.97;100.00
70544;BME280;58097;48.364;-1.224;2023-12-20T04:49:17;100697.06;;;7.02;100.00
70544;BME280;58097;48.364;-1.224;2023-12-20T04:51:42;100697.06;;;7.02;100.00
70544;BME280;58097;48.364;-1.224;2023-12-20T04:54:07;100691.69;;;7.00;100.00
70544;BME280;58097;48.364;-1.224;2023-12-20T04:56:33;100692.81;;;6.98;100.00
70544;BME280;58097;48.364;-1.224;2023-12-20T04:58:58;100691.16;;;6.95;100.00
70544;BME280;58097;48.364;-1.224;2023-12-20T05:01:24;100693.13;;;6.93;100.00
70544;BME280;58097;48.364;-1.224;2023-12-20T05:03:49;100688.75;;;6.91;100.00
70544;BME280;58097;48.364;-1.224;2023-12-20T05:06:14;100682.63;;;6.87;100.00
70544;BME280;58097;48.364;-1.224;2023-12-20T05:08:40;100688.34;;;6.84;100.00
70544;BME280;58097;48.364;-1.224;2023-12-20T05:11:06;100684.09;;;6.80;100.00
70544;BME280;58097;48.364;-1.224;2023-12-20T05:13:31;100686.09;;;6.78;100.00
70544;BME280;58097;48.364;-1.224;2023-12-20T05:15:56;100678.22;;;6.73;100.00
70544;BME280;58097;48.364;-1.224;2023-12-20T05:18:22;100694.81;;;6.72;100.00
70544;BME280;58097;48.364;-1.224;2023-12-20T05:20:48;100698.66;;;6.69;100.00
70544;BME280;58097;48.364;-1.224;2023-12-20T05:23:14;100695.16;;;6.67;100.00
70544;BME280;58097;48.364;-1.224;2023-12-20T05:25:39;100695.28;;;6.66;100.00
70544;BME280;58097;48.364;-1.224;2023-12-20T05:28:05;100699.00;;;6.65;100.00
70544;BME280;58097;48.364;-1.224;2023-12-20T05:30:30;100699.22;;;6.62;100.00
70544;BME280;58097;48.364;-1.224;2023-12-20T05:32:56;100704.97;;;6.59;100.00
70544;BME280;58097;48.364;-1.224;2023-12-20T05:35:21;100697.94;;;6.55;100.00
70544;BME280;58097;48.364;-1.224;2023-12-20T05:37:48;100702.69;;;6.52;100.00
70544;BME280;58097;48.364;-1.224;2023-12-20T05:40:14;100709.28;;;6.50;100.00
70544;BME280;58097;48.364;-1.224;2023-12-20T05:42:39;100705.91;;;6.46;100.00
70544;BME280;58097;48.364;-1.224;2023-12-20T05:45:05;100712.50;;;6.44;100.00
70544;BME280;58097;48.364;-1.224;2023-12-20T05:47:31;100714.50;;;6.42;100.00
70544;BME280;58097;48.364;-1.224;2023-12-20T05:49:56;100709.34;;;6.37;100.00
70544;BME280;58097;48.364;-1.224;2023-12-20T05:52:21;100708.38;;;6.38;100.00
70544;BME280;58097;48.364;-1.224;2023-12-20T05:54:47;100710.34;;;6.36;100.00
70544;BME280;58097;48.364;-1.224;2023-12-20T05:57:12;100711.22;;;6.37;100.00
70544;BME280;58097;48.364;-1.224;2023-12-20T05:59:38;100711.31;;;6.35;100.00
70544;BME280;58097;48.364;-1.224;2023-12-20T06:02:04;100701.56;;;6.31;100.00
70544;BME280;58097;48.364;-1.224;2023-12-20T06:04:30;100700.78;;;6.29;100.00
70544;BME280;58097;48.364;-1.224;2023-12-20T06:06:55;100700.03;;;6.27;100.00
70544;BME280;58097;48.364;-1.224;2023-12-20T06:09:20;100697.41;;;6.26;100.00
70544;BME280;58097;48.364;-1.224;2023-12-20T06:11:46;100706.63;;;6.25;100.00
70544;BME280;58097;48.364;-1.224;2023-12-20T06:14:11;100722.22;;;6.24;100.00
70544;BME280;58097;48.364;-1.224;2023-12-20T06:16:36;100716.84;;;6.22;100.00
70544;BME280;58097;48.364;-1.224;2023-12-20T06:19:02;100726.94;;;6.22;100.00
70544;BME280;58097;48.364;-1.224;2023-12-20T06:21:27;100727.72;;;6.24;100.00
70544;BME280;58097;48.364;-1.224;2023-12-20T06:23:52;100733.97;;;6.26;100.00
70544;BME280;58097;48.364;-1.224;2023-12-20T06:26:18;100735.59;;;6.29;100.00
70544;BME280;58097;48.364;-1.224;2023-12-20T06:28:43;100737.25;;;6.31;100.00
70544;BME280;58097;48.364;-1.224;2023-12-20T06:31:08;100736.38;;;6.31;100.00
70544;BME280;58097;48.364;-1.224;2023-12-20T06:33:34;100743.50;;;6.33;100.00
70544;BME280;58097;48.364;-1.224;2023-12-20T06:35:59;100755.16;;;6.37;100.00
70544;BME280;58097;48.364;-1.224;2023-12-20T06:38:25;100758.66;;;6.39;100.00
70544;BME280;58097;48.364;-1.224;2023-12-20T06:40:50;100758.53;;;6.40;100.00
70544;BME280;58097;48.364;-1.224;2023-12-20T06:43:15;100771.91;;;6.45;100.00
70544;BME280;58097;48.364;-1.224;2023-12-20T06:45:41;100746.22;;;6.46;100.00
70544;BME280;58097;48.364;-1.224;2023-12-20T06:48:07;100749.84;;;6.46;100.00
70544;BME280;58097;48.364;-1.224;2023-12-20T06:50:32;100749.59;;;6.49;100.00
70544;BME280;58097;48.364;-1.224;2023-12-20T06:52:58;100746.75;;;6.51;100.00
70544;BME280;58097;48.364;-1.224;2023-12-20T06:55:23;100755.09;;;6.49;100.00
70544;BME280;58097;48.364;-1.224;2023-12-20T06:57:48;100753.88;;;6.53;100.00
70544;BME280;58097;48.364;-1.224;2023-12-20T07:00:14;100754.75;;;6.54;100.00
70544;BME280;58097;48.364;-1.224;2023-12-20T07:02:40;100750.25;;;6.53;100.00
70544;BME280;58097;48.364;-1.224;2023-12-20T07:05:05;100762.34;;;6.50;100.00
70544;BME280;58097;48.364;-1.224;2023-12-20T07:07:31;100754.88;;;6.52;100.00
70544;BME280;58097;48.364;-1.224;2023-12-20T07:09:56;100748.38;;;6.53;100.00
70544;BME280;58097;48.364;-1.224;2023-12-20T07:12:22;100755.50;;;6.56;100.00
70544;BME280;58097;48.364;-1.224;2023-12-20T07:14:47;100759.88;;;6.59;100.00
70544;BME280;58097;48.364;-1.224;2023-12-20T07:17:13;100762.75;;;6.57;100.00
70544;BME280;58097;48.364;-1.224;2023-12-20T07:19:40;100760.75;;;6.59;100.00
70544;BME280;58097;48.364;-1.224;2023-12-20T07:22:05;100757.25;;;6.57;100.00
70544;BME280;58097;48.364;-1.224;2023-12-20T07:24:31;100749.53;;;6.62;100.00
70544;BME280;58097;48.364;-1.224;2023-12-20T07:26:56;100757.47;;;6.67;100.00
70544;BME280;58097;48.364;-1.224;2023-12-20T07:29:22;100757.34;;;6.68;100.00
70544;BME280;58097;48.364;-1.224;2023-12-20T07:31:47;100758.09;;;6.70;100.00
70544;BME280;58097;48.364;-1.224;2023-12-20T07:34:12;100752.72;;;6.69;100.00
70544;BME280;58097;48.364;-1.224;2023-12-20T07:36:38;100752.72;;;6.69;100.00
70544;BME280;58097;48.364;-1.224;2023-12-20T07:39:03;100760.84;;;6.70;100.00
70544;BME280;58097;48.364;-1.224;2023-12-20T07:41:28;100768.97;;;6.72;100.00
70544;BME280;58097;48.364;-1.224;2023-12-20T07:43:54;100770.72;;;6.73;100.00
70544;BME280;58097;48.364;-1.224;2023-12-20T07:46:20;100766.75;;;6.77;100.00
70544;BME280;58097;48.364;-1.224;2023-12-20T07:48:47;100775.00;;;6.77;100.00
70544;BME280;58097;48.364;-1.224;2023-12-20T07:51:13;100763.78;;;6.80;100.00
70544;BME280;58097;48.364;-1.224;2023-12-20T07:53:38;100772.88;;;6.80;100.00
70544;BME280;58097;48.364;-1.224;2023-12-20T07:56:16;100769.28;;;6.80;100.00
70544;BME280;58097;48.364;-1.224;2023-12-20T07:58:42;100756.00;;;6.74;100.00
70544;BME280;58097;48.364;-1.224;2023-12-20T08:01:08;100746.75;;;6.75;100.00
70544;BME280;58097;48.364;-1.224;2023-12-20T08:03:33;100752.16;;;6.76;100.00
70544;BME280;58097;48.364;-1.224;2023-12-20T08:05:58;100747.13;;;6.70;100.00
70544;BME280;58097;48.364;-1.224;2023-12-20T08:08:25;100752.25;;;6.75;100.00
70544;BME280;58097;48.364;-1.224;2023-12-20T08:10:50;100748.41;;;6.77;100.00
70544;BME280;58097;48.364;-1.224;2023-12-20T08:13:15;100749.41;;;6.76;100.00
70544;BME280;58097;48.364;-1.224;2023-12-20T08:15:41;100754.78;;;6.78;100.00
70544;BME280;58097;48.364;-1.224;2023-12-20T08:18:06;100756.75;;;6.76;100.00
70544;BME280;58097;48.364;-1.224;2023-12-20T08:20:31;100751.50;;;6.73;100.00
70544;BME280;58097;48.364;-1.224;2023-12-20T08:22:57;100764.59;;;6.69;100.00
70544;BME280;58097;48.364;-1.224;2023-12-20T08:25:22;100772.94;;;6.68;100.00
70544;BME280;58097;48.364;-1.224;2023-12-20T08:27:47;100778.56;;;6.66;100.00
70544;BME280;58097;48.364;-1.224;2023-12-20T08:30:13;100772.94;;;6.68;100.00
70544;BME280;58097;48.364;-1.224;2023-12-20T08:32:38;100776.03;;;6.63;100.00
70544;BME280;58097;48.364;-1.224;2023-12-20T08:35:04;100775.25;;;6.61;100.00
70544;BME280;58097;48.364;-1.224;2023-12-20T08:37:29;100768.25;;;6.57;100.00
70544;BME280;58097;48.364;-1.224;2023-12-20T08:39:55;100780.09;;;6.58;100.00
70544;BME280;58097;48.364;-1.224;2023-12-20T08:42:21;100784.38;;;6.62;100.00
70544;BME280;58097;48.364;-1.224;2023-12-20T08:44:46;100803.28;;;6.66;100.00
70544;BME280;58097;48.364;-1.224;2023-12-20T08:47:11;100796.81;;;6.67;100.00
70544;BME280;58097;48.364;-1.224;2023-12-20T08:49:38;100791.94;;;6.71;100.00
70544;BME280;58097;48.364;-1.224;2023-12-20T08:52:04;100793.59;;;6.73;100.00
70544;BME280;58097;48.364;-1.224;2023-12-20T08:54:30;100804.97;;;6.80;100.00
70544;BME280;58097;48.364;-1.224;2023-12-20T08:56:55;100802.25;;;6.80;100.00
70544;BME280;58097;48.364;-1.224;2023-12-20T08:59:20;100795.50;;;6.84;100.00
70544;BME280;58097;48.364;-1.224;2023-12-20T09:01:46;100794.28;;;6.88;100.00
70544;BME280;58097;48.364;-1.224;2023-12-20T09:04:13;100811.09;;;6.96;100.00
70544;BME280;58097;48.364;-1.224;2023-12-20T09:06:38;100808.84;;;7.01;100.00
70544;BME280;58097;48.364;-1.224;2023-12-20T09:09:03;100807.63;;;7.05;100.00
70544;BME280;58097;48.364;-1.224;2023-12-20T09:11:29;100800.78;;;7.11;100.00
70544;BME280;58097;48.364;-1.224;2023-12-20T09:13:56;100806.03;;;7.14;100.00
70544;BME280;58097;48.364;-1.224;2023-12-20T09:16:22;100804.69;;;7.20;100.00
70544;BME280;58097;48.364;-1.224;2023-12-20T09:18:47;100794.25;;;7.25;100.00
70544;BME280;58097;48.364;-1.224;2023-12-20T09:21:12;100785.00;;;7.26;100.00
70544;BME280;58097;48.364;-1.224;2023-12-20T09:23:38;100776.00;;;7.24;100.00
70544;BME280;58097;48.364;-1.224;2023-12-20T09:26:03;100764.19;;;7.22;100.00
70544;BME280;58097;48.364;-1.224;2023-12-20T09:28:29;100755.75;;;7.25;100.00
70544;BME280;58097;48.364;-1.224;2023-12-20T09:30:54;100764.19;;;7.22;100.00
70544;BME280;58097;48.364;-1.224;2023-12-20T09:33:20;100767.25;;;7.30;100.00
70544;BME280;58097;48.364;-1.224;2023-12-20T09:35:45;100766.50;;;7.28;100.00
70544;BME280;58097;48.364;-1.224;2023-12-20T09:38:10;100779.13;;;7.30;100.00
70544;BME280;58097;48.364;-1.224;2023-12-20T09:40:41;100779.38;;;7.27;100.00
70544;BME280;58097;48.364;-1.224;2023-12-20T09:43:18;100774.25;;;7.34;100.00
70544;BME280;58097;48.364;-1.224;2023-12-20T09:45:47;100787.41;;;7.41;100.00
70544;BME280;58097;48.364;-1.224;2023-12-20T09:48:13;100787.34;;;7.54;100.00
70544;BME280;58097;48.364;-1.224;2023-12-20T09:50:41;100790.09;;;7.65;100.00
70544;BME280;58097;48.364;-1.224;2023-12-20T09:53:12;100790.66;;;7.82;100.00
70544;BME280;58097;48.364;-1.224;2023-12-20T09:55:41;100791.91;;;8.00;100.00
70544;BME280;58097;48.364;-1.224;2023-12-20T09:58:06;100788.06;;;8.14;100.00
70544;BME280;58097;48.364;-1.224;2023-12-20T10:00:34;100786.31;;;8.24;100.00
70544;BME280;58097;48.364;-1.224;2023-12-20T10:03:00;100794.81;;;8.32;100.00
70544;BME280;58097;48.364;-1.224;2023-12-20T10:05:28;100786.84;;;8.40;100.00
70544;BME280;58097;48.364;-1.224;2023-12-20T10:07:54;100793.72;;;8.46;100.00
70544;BME280;58097;48.364;-1.224;2023-12-20T10:10:19;100797.97;;;8.50;100.00
70544;BME280;58097;48.364;-1.224;2023-12-20T10:13:05;100804.50;;;8.49;100.00
70544;BME280;58097;48.364;-1.224;2023-12-20T10:15:31;100818.25;;;8.49;100.00
70544;BME280;58097;48.364;-1.224;2023-12-20T10:17:57;100818.88;;;8.52;100.00
70544;BME280;58097;48.364;-1.224;2023-12-20T10:20:23;100822.63;;;8.62;100.00
70544;BME280;58097;48.364;-1.224;2023-12-20T10:22:49;100836.28;;;8.75;100.00
70544;BME280;58097;48.364;-1.224;2023-12-20T10:25:14;100813.19;;;8.87;100.00
70544;BME280;58097;48.364;-1.224;2023-12-20T10:27:40;100803.78;;;8.90;100.00
70544;BME280;58097;48.364;-1.224;2023-12-20T10:30:05;100798.16;;;8.91;100.00
70544;BME280;58097;48.364;-1.224;2023-12-20T10:32:31;100802.28;;;8.97;100.00
70544;BME280;58097;48.364;-1.224;2023-12-20T10:34:57;100799.28;;;9.00;100.00
70544;BME280;58097;48.364;-1.224;2023-12-20T10:37:22;100805.66;;;9.00;100.00
70544;BME280;58097;48.364;-1.224;2023-12-20T10:39:52;100790.88;;;9.02;100.00
70544;BME280;58097;48.364;-1.224;2023-12-20T10:42:21;100785.44;;;9.11;100.00
70544;BME280;58097;48.364;-1.224;2023-12-20T10:44:48;100782.28;;;9.16;100.00
70544;BME280;58097;48.364;-1.224;2023-12-20T10:47:14;100785.03;;;9.27;100.00
70544;BME280;58097;48.364;-1.224;2023-12-20T10:49:40;100770.03;;;9.41;100.00
70544;BME280;58097;48.364;-1.224;2023-12-20T10:52:08;100777.31;;;9.62;100.00
70544;BME280;58097;48.364;-1.224;2023-12-20T10:54:34;100775.06;;;9.77;100.00
70544;BME280;58097;48.364;-1.224;2023-12-20T10:57:00;100776.09;;;9.97;100.00
70544;BME280;58097;48.364;-1.224;2023-12-20T10:59:38;100769.94;;;10.14;100.00
70544;BME280;58097;48.364;-1.224;2023-12-20T11:02:05;100770.47;;;10.29;100.00
70544;BME280;58097;48.364;-1.224;2023-12-20T11:04:47;100757.84;;;10.36;100.00
70544;BME280;58097;48.364;-1.224;2023-12-20T11:09:59;100759.94;;;10.53;100.00
70544;BME280;58097;48.364;-1.224;2023-12-20T11:12:47;100767.56;;;10.71;100.00
70544;BME280;58097;48.364;-1.224;2023-12-20T11:15:14;100765.13;;;10.77;100.00
70544;BME280;58097;48.364;-1.224;2023-12-20T11:17:44;100772.38;;;10.78;100.00
70544;BME280;58097;48.364;-1.224;2023-12-20T11:20:11;100767.28;;;10.74;100.00
70544;BME280;58097;48.364;-1.224;2023-12-20T11:22:37;100752.53;;;10.64;100.00
70544;BME280;58097;48.364;-1.224;2023-12-20T11:25:10;100757.47;;;10.60;100.00
70544;BME280;58097;48.364;-1.224;2023-12-20T11:27:40;100745.69;;;10.58;100.00
70544;BME280;58097;48.364;-1.224;2023-12-20T11:30:06;100749.16;;;10.41;100.00
70544;BME280;58097;48.364;-1.224;2023-12-20T11:32:35;100745.00;;;10.26;100.00
70544;BME280;58097;48.364;-1.224;2023-12-20T11:35:16;100749.59;;;10.15;100.00
70544;BME280;58097;48.364;-1.224;2023-12-20T11:37:42;100745.06;;;10.14;100.00
70544;BME280;58097;48.364;-1.224;2023-12-20T11:40:12;100745.28;;;10.02;100.00
70544;BME280;58097;48.364;-1.224;2023-12-20T11:45:08;100746.81;;;9.85;100.00
70544;BME280;58097;48.364;-1.224;2023-12-20T11:47:34;100746.03;;;9.83;100.00
70544;BME280;58097;48.364;-1.224;2023-12-20T11:50:00;100735.00;;;9.83;100.00
70544;BME280;58097;48.364;-1.224;2023-12-20T11:52:28;100717.56;;;9.82;100.00
70544;BME280;58097;48.364;-1.224;2023-12-20T11:54:54;100724.75;;;9.94;100.00
70544;BME280;58097;48.364;-1.224;2023-12-20T11:57:19;100715.50;;;10.05;100.00
70544;BME280;58097;48.364;-1.224;2023-12-20T11:59:46;100704.66;;;10.13;100.00
70544;BME280;58097;48.364;-1.224;2023-12-20T12:02:12;100712.06;;;10.13;100.00
70544;BME280;58097;48.364;-1.224;2023-12-20T12:04:37;100704.00;;;10.31;100.00
70544;BME280;58097;48.364;-1.224;2023-12-20T12:07:03;100693.47;;;10.45;100.00
70544;BME280;58097;48.364;-1.224;2023-12-20T12:09:28;100686.34;;;10.62;100.00
70544;BME280;58097;48.364;-1.224;2023-12-20T12:11:54;100683.91;;;10.78;100.00
70544;BME280;58097;48.364;-1.224;2023-12-20T12:14:20;100669.34;;;10.86;100.00
70544;BME280;58097;48.364;-1.224;2023-12-20T12:16:46;100675.50;;;10.99;100.00
70544;BME280;58097;48.364;-1.224;2023-12-20T12:19:24;100669.81;;;11.01;100.00
70544;BME280;58097;48.364;-1.224;2023-12-20T12:21:50;100662.38;;;11.01;100.00
70544;BME280;58097;48.364;-1.224;2023-12-20T12:24:20;100656.69;;;10.93;100.00
70544;BME280;58097;48.364;-1.224;2023-12-20T12:26:57;100645.63;;;10.83;100.00
70544;BME280;58097;48.364;-1.224;2023-12-20T12:29:22;100648.97;;;10.87;100.00
70544;BME280;58097;48.364;-1.224;2023-12-20T12:31:50;100637.91;;;10.87;100.00
70544;BME280;58097;48.364;-1.224;2023-12-20T12:34:15;100638.50;;;10.91;100.00
70544;BME280;58097;48.364;-1.224;2023-12-20T12:36:41;100639.94;;;10.95;100.00